Time,TemperatureF,DewpointF,PressureIn,WindDirection,WindDirectionDegrees,WindSpeedMPH,WindSpeedGustMPH,Humidity,HourlyPrecipIn,Conditions,Clouds,dailyrainin,SolarRadiationWatts/m^2,SoftwareType,DateUTC
2013-05-27 00:11:00,55.0,31.0,-100.00,WNW,289,14.0,25.0,40,0.00,,,0.00,0.000000,,2013-05-27 07:11:00,
2013-05-27 00:21:00,55.0,31.0,-100.00,WNW,289,14.0,25.0,40,0.00,,,0.00,0.000000,,2013-05-27 07:21:00,
2013-05-27 00:31:00,55.0,31.0,-100.00,WNW,289,14.0,25.0,40,0.00,,,0.00,0.000000,,2013-05-27 07:31:00,
2013-05-27 00:41:00,55.0,31.0,-100.00,WNW,289,14.0,25.0,40,0.00,,,0.00,0.000000,,2013-05-27 07:41:00,
2013-05-27 01:11:00,51.0,29.0,-100.00,WNW,302,9.0,21.0,43,0.00,,,0.00,0.000000,,2013-05-27 08:11:00,
2013-05-27 01:21:00,51.0,29.0,-100.00,WNW,302,9.0,21.0,43,0.00,,,0.00,0.000000,,2013-05-27 08:21:00,
2013-05-27 01:32:00,51.0,29.0,-100.00,WNW,302,9.0,21.0,43,0.00,,,0.00,0.000000,,2013-05-27 08:32:00,
2013-05-27 01:42:00,51.0,29.0,-100.00,WNW,302,9.0,21.0,43,0.00,,,0.00,0.000000,,2013-05-27 08:42:00,
2013-05-27 02:11:00,49.0,30.0,-100.00,West,270,5.0,12.0,47,0.00,,,0.00,0.000000,,2013-05-27 09:11:00,
2013-05-27 02:21:00,49.0,30.0,-100.00,West,270,5.0,12.0,47,0.00,,,0.00,0.000000,,2013-05-27 09:21:00,
2013-05-27 02:33:00,49.0,30.0,-100.00,West,270,5.0,12.0,47,0.00,,,0.00,0.000000,,2013-05-27 09:33:00,
2013-05-27 02:42:00,49.0,30.0,-100.00,West,270,5.0,12.0,47,0.00,,,0.00,0.000000,,2013-05-27 09:42:00,
2013-05-27 03:12:00,49.0,29.0,-100.00,SW,217,5.0,12.0,45,0.00,,,0.00,0.000000,,2013-05-27 10:12:00,
2013-05-27 03:22:00,49.0,29.0,-100.00,SW,217,5.0,12.0,45,0.00,,,0.00,0.000000,,2013-05-27 10:22:00,
2013-05-27 03:32:00,49.0,29.0,-100.00,SW,217,5.0,12.0,45,0.00,,,0.00,0.000000,,2013-05-27 10:32:00,
2013-05-27 03:42:00,49.0,29.0,-100.00,SW,217,5.0,12.0,45,0.00,,,0.00,0.000000,,2013-05-27 10:42:00,
2013-05-27 04:11:00,46.0,27.0,-100.00,West,281,3.0,11.0,48,0.00,,,0.00,0.000000,,2013-05-27 11:11:00,
2013-05-27 04:21:00,46.0,27.0,-100.00,West,281,3.0,11.0,48,0.00,,,0.00,0.000000,,2013-05-27 11:21:00,
2013-05-27 04:32:00,46.0,27.0,-100.00,West,281,3.0,11.0,48,0.00,,,0.00,0.000000,,2013-05-27 11:32:00,
2013-05-27 04:42:00,46.0,27.0,-100.00,West,281,3.0,11.0,48,0.00,,,0.00,0.000000,,2013-05-27 11:42:00,
2013-05-27 05:11:00,44.0,27.0,-100.00,WSW,247,5.0,11.0,51,0.00,,,0.00,0.000000,,2013-05-27 12:11:00,
2013-05-27 05:21:00,44.0,27.0,-100.00,WSW,247,5.0,11.0,51,0.00,,,0.00,0.000000,,2013-05-27 12:21:00,
2013-05-27 05:31:00,44.0,27.0,-100.00,WSW,247,5.0,11.0,51,0.00,,,0.00,0.000000,,2013-05-27 12:31:00,
2013-05-27 05:42:00,44.0,27.0,-100.00,WSW,247,5.0,11.0,51,0.00,,,0.00,0.000000,,2013-05-27 12:42:00,
2013-05-27 06:11:00,42.0,26.0,-100.00,SW,231,7.0,9.0,53,0.00,,,0.00,3.000000,,2013-05-27 13:11:00,
2013-05-27 06:21:00,42.0,26.0,-100.00,SW,231,7.0,9.0,53,0.00,,,0.00,3.000000,,2013-05-27 13:21:00,
2013-05-27 06:32:00,42.0,26.0,-100.00,SW,231,7.0,9.0,53,0.00,,,0.00,3.000000,,2013-05-27 13:32:00,
2013-05-27 06:41:00,42.0,26.0,-100.00,SW,231,7.0,9.0,53,0.00,,,0.00,3.000000,,2013-05-27 13:41:00,
2013-05-27 07:11:00,53.0,31.0,-100.00,WSW,237,2.0,8.0,42,0.00,,,0.00,138.000000,,2013-05-27 14:11:00,
2013-05-27 07:21:00,53.0,31.0,-100.00,WSW,237,2.0,8.0,42,0.00,,,0.00,138.000000,,2013-05-27 14:21:00,
2013-05-27 08:11:00,57.0,31.0,-100.00,West,275,0.0,6.0,37,0.00,,,0.00,257.000000,,2013-05-27 15:11:00,
2013-05-27 08:43:00,57.0,31.0,-100.00,West,275,0.0,6.0,37,0.00,,,0.00,257.000000,,2013-05-27 15:43:00,
2013-05-27 09:12:00,62.0,30.0,-100.00,NE,41,0.0,3.0,30,0.00,,,0.00,536.000000,,2013-05-27 16:12:00,
2013-05-27 09:23:00,62.0,30.0,-100.00,NE,41,0.0,3.0,30,0.00,,,0.00,536.000000,,2013-05-27 16:23:00,
2013-05-27 09:33:00,62.0,30.0,-100.00,NE,41,0.0,3.0,30,0.00,,,0.00,536.000000,,2013-05-27 16:33:00,
2013-05-27 09:42:00,62.0,30.0,-100.00,NE,41,0.0,3.0,30,0.00,,,0.00,536.000000,,2013-05-27 16:42:00,
2013-05-27 10:11:00,64.0,29.0,-100.00,East,83,0.0,5.0,27,0.00,,,0.00,613.000000,,2013-05-27 17:11:00,
2013-05-27 10:22:00,64.0,29.0,-100.00,East,83,0.0,5.0,27,0.00,,,0.00,613.000000,,2013-05-27 17:22:00,
2013-05-27 10:32:00,64.0,29.0,-100.00,East,83,0.0,5.0,27,0.00,,,0.00,613.000000,,2013-05-27 17:32:00,
2013-05-27 10:42:00,64.0,29.0,-100.00,East,83,0.0,5.0,27,0.00,,,0.00,613.000000,,2013-05-27 17:42:00,
2013-05-27 11:11:00,66.0,29.0,-100.00,WNW,300,1.0,8.0,25,0.00,,,0.00,813.000000,,2013-05-27 18:11:00,
2013-05-27 11:22:00,66.0,29.0,-100.00,WNW,300,1.0,8.0,25,0.00,,,0.00,813.000000,,2013-05-27 18:22:00,
2013-05-27 11:32:00,66.0,29.0,-100.00,WNW,300,1.0,8.0,25,0.00,,,0.00,813.000000,,2013-05-27 18:32:00,
2013-05-27 11:42:00,66.0,29.0,-100.00,WNW,300,1.0,8.0,25,0.00,,,0.00,813.000000,,2013-05-27 18:42:00,
2013-05-27 12:11:00,67.0,28.0,-100.00,NNW,338,4.0,9.0,23,0.00,,,0.00,706.000000,,2013-05-27 19:11:00,
2013-05-27 12:21:00,67.0,28.0,-100.00,NNW,338,4.0,9.0,23,0.00,,,0.00,706.000000,,2013-05-27 19:21:00,
2013-05-27 12:31:00,67.0,28.0,-100.00,NNW,338,4.0,9.0,23,0.00,,,0.00,706.000000,,2013-05-27 19:31:00,
2013-05-27 12:41:00,67.0,28.0,-100.00,NNW,338,4.0,9.0,23,0.00,,,0.00,706.000000,,2013-05-27 19:41:00,
2013-05-27 13:11:00,70.0,27.0,-100.00,WSW,248,3.0,13.0,20,0.00,,,0.00,869.000000,,2013-05-27 20:11:00,
2013-05-27 13:22:00,70.0,27.0,-100.00,WSW,248,3.0,13.0,20,0.00,,,0.00,869.000000,,2013-05-27 20:22:00,
2013-05-27 13:32:00,70.0,27.0,-100.00,WSW,248,3.0,13.0,20,0.00,,,0.00,869.000000,,2013-05-27 20:32:00,
2013-05-27 13:41:00,70.0,27.0,-100.00,WSW,248,3.0,13.0,20,0.00,,,0.00,869.000000,,2013-05-27 20:41:00,
2013-05-27 14:12:00,68.0,28.0,-100.00,WNW,289,5.0,16.0,22,0.00,,,0.00,511.000000,,2013-05-27 21:12:00,
2013-05-27 14:21:00,68.0,28.0,-100.00,WNW,289,5.0,16.0,22,0.00,,,0.00,511.000000,,2013-05-27 21:21:00,
2013-05-27 14:33:00,68.0,28.0,-100.00,WNW,289,5.0,16.0,22,0.00,,,0.00,511.000000,,2013-05-27 21:33:00,
2013-05-27 14:42:00,68.0,28.0,-100.00,WNW,289,5.0,16.0,22,0.00,,,0.00,511.000000,,2013-05-27 21:42:00,
2013-05-27 15:12:00,59.0,41.0,-100.00,WNW,285,19.0,33.0,51,0.00,,,0.00,305.000000,,2013-05-27 22:12:00,
2013-05-27 15:42:00,59.0,41.0,-100.00,WNW,285,19.0,33.0,51,0.00,,,0.00,305.000000,,2013-05-27 22:42:00,
2013-05-27 16:12:00,58.0,45.0,-100.00,SW,220,15.0,22.0,61,0.00,,,0.00,193.000000,,2013-05-27 23:12:00,
2013-05-27 16:22:00,58.0,45.0,-100.00,SW,220,15.0,22.0,61,0.00,,,0.00,193.000000,,2013-05-27 23:22:00,
2013-05-27 16:32:00,58.0,45.0,-100.00,SW,220,15.0,22.0,61,0.00,,,0.00,193.000000,,2013-05-27 23:32:00,
2013-05-27 16:42:00,58.0,45.0,-100.00,SW,220,15.0,22.0,61,0.00,,,0.00,193.000000,,2013-05-27 23:42:00,
2013-05-27 17:11:00,61.0,42.0,-100.00,SSW,208,14.0,22.0,50,0.00,,,0.00,242.000000,,2013-05-28 00:11:00,
2013-05-27 17:21:00,61.0,42.0,-100.00,SSW,208,14.0,22.0,50,0.00,,,0.00,242.000000,,2013-05-28 00:21:00,
2013-05-27 17:31:00,61.0,42.0,-100.00,SSW,208,14.0,22.0,50,0.00,,,0.00,242.000000,,2013-05-28 00:31:00,
2013-05-27 17:41:00,61.0,42.0,-100.00,SSW,208,14.0,22.0,50,0.00,,,0.00,242.000000,,2013-05-28 00:41:00,
2013-05-27 18:11:00,64.0,41.0,-100.00,SSW,209,13.0,20.0,43,0.00,,,0.00,639.000000,,2013-05-28 01:11:00,
2013-05-27 18:21:00,64.0,41.0,-100.00,SSW,209,13.0,20.0,43,0.00,,,0.00,639.000000,,2013-05-28 01:21:00,
2013-05-27 18:31:00,64.0,41.0,-100.00,SSW,209,13.0,20.0,43,0.00,,,0.00,639.000000,,2013-05-28 01:31:00,
2013-05-27 18:41:00,64.0,41.0,-100.00,SSW,209,13.0,20.0,43,0.00,,,0.00,639.000000,,2013-05-28 01:41:00,
2013-05-27 19:11:00,62.0,39.0,-100.00,West,278,9.0,21.0,42,0.00,,,0.00,165.000000,,2013-05-28 02:11:00,
2013-05-27 19:21:00,62.0,39.0,-100.00,West,278,9.0,21.0,42,0.00,,,0.00,165.000000,,2013-05-28 02:21:00,
2013-05-27 19:32:00,62.0,39.0,-100.00,West,278,9.0,21.0,42,0.00,,,0.00,165.000000,,2013-05-28 02:32:00,
2013-05-27 19:41:00,62.0,39.0,-100.00,West,278,9.0,21.0,42,0.00,,,0.00,165.000000,,2013-05-28 02:41:00,
2013-05-27 20:11:00,61.0,40.0,-100.00,West,275,12.0,19.0,45,0.00,,,0.00,50.000000,,2013-05-28 03:11:00,
2013-05-27 20:21:00,61.0,40.0,-100.00,West,275,12.0,19.0,45,0.00,,,0.00,50.000000,,2013-05-28 03:21:00,
2013-05-27 20:33:00,61.0,40.0,-100.00,West,275,12.0,19.0,45,0.00,,,0.00,50.000000,,2013-05-28 03:33:00,
2013-05-27 20:43:00,61.0,40.0,-100.00,West,275,12.0,19.0,45,0.00,,,0.00,50.000000,,2013-05-28 03:43:00,
2013-05-27 21:12:00,60.0,39.0,-100.00,West,260,8.0,20.0,45,0.00,,,0.00,5.000000,,2013-05-28 04:12:00,
2013-05-27 21:22:00,60.0,39.0,-100.00,West,260,8.0,20.0,45,0.00,,,0.00,5.000000,,2013-05-28 04:22:00,
2013-05-27 21:33:00,60.0,39.0,-100.00,West,260,8.0,20.0,45,0.00,,,0.00,5.000000,,2013-05-28 04:33:00,
2013-05-27 21:42:00,60.0,39.0,-100.00,West,260,8.0,20.0,45,0.00,,,0.00,5.000000,,2013-05-28 04:42:00,
2013-05-27 22:12:00,60.0,37.0,-100.00,WNW,293,7.0,14.0,43,0.00,,,0.00,0.000000,,2013-05-28 05:12:00,
2013-05-27 22:22:00,60.0,37.0,-100.00,WNW,293,7.0,14.0,43,0.00,,,0.00,0.000000,,2013-05-28 05:22:00,
2013-05-27 22:32:00,60.0,37.0,-100.00,WNW,293,7.0,14.0,43,0.00,,,0.00,0.000000,,2013-05-28 05:32:00,
2013-05-27 22:42:00,60.0,37.0,-100.00,WNW,293,7.0,14.0,43,0.00,,,0.00,0.000000,,2013-05-28 05:42:00,
2013-05-27 23:11:00,56.0,39.0,-100.00,West,274,8.0,21.0,52,0.00,,,0.00,0.000000,,2013-05-28 06:11:00,
2013-05-27 23:21:00,56.0,39.0,-100.00,West,274,8.0,21.0,52,0.00,,,0.00,0.000000,,2013-05-28 06:21:00,
2013-05-27 23:31:00,56.0,39.0,-100.00,West,274,8.0,21.0,52,0.00,,,0.00,0.000000,,2013-05-28 06:31:00,
2013-05-27 23:41:00,56.0,39.0,-100.00,West,274,8.0,21.0,52,0.00,,,0.00,0.000000,,2013-05-28 06:41:00,